Time;durP1;ratioP1;P1;durP2;ratioP2;P2;SDS_P1;SDS_P2;PMS_P1;PMS_P2;Temp;Humidity;BMP_temperature;BMP_pressure;BME280_temperature;BME280_humidity;BME280_pressure;Samples;Min_cycle;Max_cycle;Signal;HPM_P1;HPM_P2
2022/06/13 00:00:25;;;;;;;14.48;4.90;;;14.70;99.90;;;;;;4982755;28;20030;-76
2022/06/13 00:02:51;;;;;;;16.75;4.85;;;14.70;99.90;;;;;;4985519;28;20023;-77
2022/06/13 00:05:18;;;;;;;16.58;5.43;;;14.70;99.90;;;;;;4983937;28;20095;-75
2022/06/13 00:07:44;;;;;;;11.80;4.88;;;14.50;99.90;;;;;;4983971;28;20022;-75
2022/06/13 00:10:12;;;;;;;16.38;4.78;;;14.50;99.90;;;;;;4985554;28;20030;-75
2022/06/13 00:12:40;;;;;;;18.67;5.43;;;14.50;99.90;;;;;;4980496;28;20076;-75
2022/06/13 00:15:07;;;;;;;13.98;4.35;;;14.50;99.90;;;;;;4981526;28;20050;-75
2022/06/13 00:17:32;;;;;;;12.10;4.75;;;14.60;99.90;;;;;;4981917;28;20511;-76
2022/06/13 00:19:58;;;;;;;9.80;4.50;;;14.50;99.90;;;;;;4981502;28;20062;-74
2022/06/13 00:22:24;;;;;;;13.25;4.47;;;14.50;99.90;;;;;;4986077;28;20036;-74
2022/06/13 00:24:50;;;;;;;11.43;4.80;;;14.50;99.90;;;;;;4985711;28;20061;-75
2022/06/13 00:27:15;;;;;;;12.95;4.18;;;14.50;99.90;;;;;;4985174;28;20031;-75
2022/06/13 00:29:47;;;;;;;15.45;4.78;;;14.40;99.90;;;;;;4970267;28;20034;-76
2022/06/13 00:32:14;;;;;;;10.82;3.95;;;14.40;99.90;;;;;;4985632;28;20481;-76
2022/06/13 00:34:40;;;;;;;11.93;4.30;;;14.40;99.90;;;;;;4985089;28;20026;-76
2022/06/13 00:37:05;;;;;;;11.85;3.72;;;14.50;99.90;;;;;;4985022;28;20050;-75
2022/06/13 00:39:31;;;;;;;12.65;4.53;;;14.60;99.90;;;;;;4986013;28;20057;-75
2022/06/13 00:41:57;;;;;;;12.07;4.78;;;14.60;99.90;;;;;;4983932;28;20042;-75
2022/06/13 00:44:26;;;;;;;15.35;5.85;;;14.60;99.90;;;;;;4984766;28;20035;-75
2022/06/13 00:46:53;;;;;;;15.80;5.22;;;14.50;99.90;;;;;;4982421;28;20033;-76
2022/06/13 00:49:26;;;;;;;13.13;4.25;;;14.50;99.90;;;;;;4980900;28;20029;-74
2022/06/13 00:52:05;;;;;;;9.38;4.47;;;14.40;99.90;;;;;;4982702;28;20030;-75
2022/06/13 00:54:35;;;;;;;16.45;5.10;;;14.40;99.90;;;;;;4986485;28;20399;-75
2022/06/13 00:57:00;;;;;;;12.90;5.15;;;14.50;99.90;;;;;;4982011;28;20049;-74
2022/06/13 00:59:30;;;;;;;13.68;4.20;;;14.40;99.90;;;;;;4982289;28;20039;-75
2022/06/13 01:01:57;;;;;;;16.02;5.00;;;14.40;99.90;;;;;;4982466;28;20336;-74
2022/06/13 01:04:23;;;;;;;11.10;4.38;;;14.50;99.90;;;;;;4985038;28;20053;-74
2022/06/13 01:06:50;;;;;;;15.68;5.35;;;14.40;99.90;;;;;;4982719;28;20034;-75
2022/06/13 01:11:16;;;;;;;14.50;4.70;;;14.50;99.90;;;;;;4981313;28;20045;-76
2022/06/13 01:12:07;;;;;;;12.23;4.97;;;14.50;99.90;;;;;;4984133;28;20411;-75
2022/06/13 01:15:07;;;;;;;17.77;4.85;;;14.50;99.90;;;;;;4984701;28;20478;-76
2022/06/13 01:18:04;;;;;;;13.85;4.75;;;14.40;99.90;;;;;;4982035;28;20347;-75
2022/06/13 01:20:45;;;;;;;19.65;5.18;;;14.40;99.90;;;;;;4978698;28;20061;-75
2022/06/13 01:23:35;;;;;;;13.20;4.80;;;14.30;99.90;;;;;;4996400;28;20026;-75
2022/06/13 01:26:23;;;;;;;16.80;4.53;;;14.30;99.90;;;;;;4983004;28;20400;-75
2022/06/13 01:29:19;;;;;;;13.80;4.93;;;14.30;99.90;;;;;;4984427;28;20035;-76
2022/06/13 01:31:55;;;;;;;13.18;3.92;;;14.30;99.90;;;;;;4984488;28;20033;-74
2022/06/13 01:34:55;;;;;;;15.35;5.03;;;14.30;99.90;;;;;;4966459;28;20026;-74
2022/06/13 01:37:55;;;;;;;11.30;4.72;;;14.30;99.90;;;;;;4983053;28;20055;-74
2022/06/13 01:40:48;;;;;;;13.75;4.93;;;14.30;99.90;;;;;;4984692;28;20141;-75
2022/06/13 01:43:49;;;;;;;12.68;4.07;;;14.20;99.90;;;;;;4982237;28;20125;-75
2022/06/13 01:46:29;;;;;;;13.02;5.03;;;14.20;99.90;;;;;;4979887;28;20506;-76
2022/06/13 01:49:12;;;;;;;14.75;5.63;;;14.10;99.90;;;;;;4980890;28;20034;-75
2022/06/13 01:51:46;;;;;;;11.38;4.80;;;13.90;99.90;;;;;;4982211;28;20198;-75
2022/06/13 01:54:42;;;;;;;15.27;5.70;;;14.00;99.90;;;;;;4979026;28;20019;-75
2022/06/13 01:57:39;;;;;;;15.27;5.28;;;14.00;99.90;;;;;;4981702;28;20046;-76
2022/06/13 02:00:10;;;;;;;14.15;5.28;;;14.00;99.90;;;;;;4984548;28;20034;-75
2022/06/13 02:03:15;;;;;;;17.55;5.38;;;14.00;99.90;;;;;;4980384;28;20089;-76
2022/06/13 02:06:02;;;;;;;15.32;5.10;;;14.00;99.90;;;;;;4982733;28;20609;-76
2022/06/13 02:08:32;;;;;;;13.95;5.30;;;14.00;99.90;;;;;;4980742;28;20034;-75
2022/06/13 02:11:13;;;;;;;14.35;5.40;;;14.00;99.90;;;;;;4981820;28;20037;-75
2022/06/13 02:13:45;;;;;;;16.40;5.90;;;13.90;99.90;;;;;;4968588;28;20080;-75
2022/06/13 02:16:18;;;;;;;13.25;4.90;;;14.00;99.90;;;;;;4961974;28;20084;-75
2022/06/13 02:19:10;;;;;;;12.95;4.95;;;13.90;99.90;;;;;;4981602;28;20779;-75
2022/06/13 02:21:59;;;;;;;14.05;5.32;;;14.00;99.90;;;;;;4975558;28;20037;-75
2022/06/13 02:24:33;;;;;;;16.08;5.63;;;14.00;99.90;;;;;;4983829;28;20062;-75
2022/06/13 02:27:02;;;;;;;13.65;5.03;;;14.00;99.90;;;;;;4979886;28;20034;-75
2022/06/13 02:29:45;;;;;;;19.17;6.13;;;14.00;99.90;;;;;;4980152;28;20031;-75
2022/06/13 02:32:23;;;;;;;17.08;6.10;;;14.00;99.90;;;;;;4982992;28;20053;-75
2022/06/13 02:35:12;;;;;;;15.18;6.03;;;14.00;99.90;;;;;;4981359;28;20109;-75
2022/06/13 02:37:53;;;;;;;17.17;6.30;;;14.10;99.90;;;;;;4971102;28;20047;-74
2022/06/13 02:40:30;;;;;;;15.27;6.38;;;14.10;99.90;;;;;;4980582;28;20030;-74
2022/06/13 02:43:01;;;;;;;15.02;6.03;;;14.00;99.90;;;;;;4986768;28;20038;-74
2022/06/13 02:45:48;;;;;;;19.35;6.32;;;14.00;99.90;;;;;;4985184;28;20038;-75
2022/06/13 02:48:33;;;;;;;14.45;5.10;;;14.10;99.90;;;;;;4978054;28;20461;-75
2022/06/13 02:51:18;;;;;;;15.82;6.05;;;14.10;99.90;;;;;;4986847;28;20952;-75
2022/06/13 02:53:57;;;;;;;14.05;5.80;;;14.10;99.90;;;;;;4987299;28;20035;-75
2022/06/13 02:57:23;;;;;;;20.90;5.65;;;14.20;99.90;;;;;;4981887;28;20027;-75
2022/06/13 03:00:05;;;;;;;14.13;5.40;;;14.20;99.90;;;;;;4983860;28;20030;-75
2022/06/13 03:03:02;;;;;;;16.43;5.93;;;14.10;99.90;;;;;;4988863;28;20030;-75
2022/06/13 03:05:49;;;;;;;14.13;5.05;;;14.10;99.90;;;;;;4984738;28;21456;-74
2022/06/13 03:08:30;;;;;;;11.93;5.05;;;14.10;99.90;;;;;;4983360;28;20139;-75
2022/06/13 03:11:08;;;;;;;19.63;6.45;;;14.20;99.90;;;;;;4986175;28;20050;-75
2022/06/13 03:13:46;;;;;;;18.38;6.15;;;14.10;99.90;;;;;;4988518;28;20039;-76
2022/06/13 03:16:24;;;;;;;17.60;5.78;;;14.00;99.90;;;;;;4981740;28;20038;-75
2022/06/13 03:18:57;;;;;;;15.68;5.38;;;13.90;99.90;;;;;;4988078;28;20039;-76
2022/06/13 03:21:34;;;;;;;17.48;5.97;;;13.90;99.90;;;;;;4983265;28;20078;-76
2022/06/13 03:24:13;;;;;;;15.40;5.45;;;13.90;99.90;;;;;;4984307;28;20035;-76
2022/06/13 03:26:47;;;;;;;15.93;5.65;;;13.90;99.90;;;;;;4984944;28;20458;-75
2022/06/13 03:29:37;;;;;;;14.85;5.25;;;13.80;99.90;;;;;;4982339;28;20026;-75
2022/06/13 03:32:16;;;;;;;14.40;5.38;;;13.80;99.90;;;;;;4978544;28;20023;-75
2022/06/13 03:34:48;;;;;;;15.68;5.55;;;13.90;99.90;;;;;;4984988;28;20038;-75
2022/06/13 03:37:19;;;;;;;15.23;5.30;;;13.90;99.90;;;;;;4982989;28;20031;-75
2022/06/13 03:40:05;;;;;;;15.07;5.35;;;14.00;99.90;;;;;;4982464;28;20054;-75
2022/06/13 03:42:59;;;;;;;16.83;6.32;;;14.00;99.90;;;;;;4986801;28;20035;-76
2022/06/13 03:45:36;;;;;;;12.95;5.45;;;14.10;99.90;;;;;;4973730;28;20108;-75
2022/06/13 03:48:20;;;;;;;13.85;5.95;;;14.10;99.90;;;;;;4984869;28;20043;-74
2022/06/13 03:50:57;;;;;;;17.67;6.20;;;14.10;99.90;;;;;;4979942;28;20072;-75
2022/06/13 03:53:34;;;;;;;12.07;5.88;;;14.10;99.90;;;;;;4981264;28;20398;-75
2022/06/13 03:56:08;;;;;;;14.70;6.20;;;14.10;99.90;;;;;;4983049;28;20034;-75
2022/06/13 03:58:45;;;;;;;13.95;5.65;;;14.10;99.90;;;;;;4985340;28;20018;-75
2022/06/13 04:01:34;;;;;;;19.08;5.88;;;14.10;99.90;;;;;;4977182;28;20034;-75
2022/06/13 04:04:01;;;;;;;14.30;5.40;;;14.10;99.90;;;;;;4967306;28;20121;-75
2022/06/13 04:06:37;;;;;;;15.95;5.53;;;14.10;99.90;;;;;;4988941;28;20030;-75
2022/06/13 04:09:43;;;;;;;14.77;5.70;;;14.20;99.90;;;;;;4976621;28;20037;-75
2022/06/13 04:12:21;;;;;;;16.65;6.20;;;14.20;99.90;;;;;;4982282;28;20040;-76
2022/06/13 04:14:52;;;;;;;14.00;5.55;;;14.30;99.90;;;;;;4980745;28;20022;-76
2022/06/13 04:17:21;;;;;;;16.85;6.28;;;14.30;99.90;;;;;;4981729;28;20125;-76
2022/06/13 04:19:50;;;;;;;12.75;5.05;;;14.20;99.90;;;;;;4980991;28;20026;-76
2022/06/13 04:22:50;;;;;;;14.77;4.78;;;14.20;99.90;;;;;;4981852;28;20070;-76
2022/06/13 04:25:28;;;;;;;18.70;5.80;;;14.20;99.90;;;;;;4985441;28;20118;-76
2022/06/13 04:28:16;;;;;;;14.25;4.93;;;14.30;99.90;;;;;;4979414;28;20030;-75
2022/06/13 04:30:43;;;;;;;16.85;5.50;;;14.30;99.90;;;;;;4982844;28;20085;-76
2022/06/13 04:33:20;;;;;;;14.15;6.07;;;14.20;99.90;;;;;;4988397;28;20030;-76
2022/06/13 04:35:47;;;;;;;19.65;5.50;;;14.10;99.90;;;;;;4980879;28;20018;-76
2022/06/13 04:38:17;;;;;;;18.98;6.18;;;14.10;99.90;;;;;;4981221;28;20035;-76
2022/06/13 04:40:52;;;;;;;13.68;4.90;;;14.10;99.90;;;;;;4979684;28;20482;-76
2022/06/13 04:43:23;;;;;;;16.05;6.13;;;14.00;99.90;;;;;;4981938;28;20081;-76
2022/06/13 04:45:57;;;;;;;14.98;5.47;;;14.10;99.90;;;;;;4981698;28;20058;-76
2022/06/13 04:48:23;;;;;;;19.33;6.07;;;14.10;99.90;;;;;;4983379;28;20034;-75
2022/06/13 04:50:53;;;;;;;18.95;5.00;;;14.20;99.90;;;;;;4980546;28;20376;-74
2022/06/13 04:53:26;;;;;;;10.10;5.03;;;14.30;99.90;;;;;;4985666;28;20038;-75
2022/06/13 04:55:53;;;;;;;16.00;5.38;;;14.40;99.90;;;;;;4965045;28;20019;-74
2022/06/13 04:58:29;;;;;;;18.27;5.70;;;14.40;99.90;;;;;;4981373;28;20034;-75
2022/06/13 05:01:17;;;;;;;12.98;4.82;;;14.50;99.90;;;;;;4976617;28;20085;-75
2022/06/13 05:03:46;;;;;;;16.42;5.15;;;14.60;99.90;;;;;;4982370;28;20061;-75
2022/06/13 05:06:38;;;;;;;12.07;4.90;;;14.70;99.90;;;;;;4984198;28;20038;-76
2022/06/13 05:09:10;;;;;;;14.45;5.18;;;14.80;99.90;;;;;;4983210;28;20022;-75
2022/06/13 05:11:38;;;;;;;14.45;4.72;;;14.90;99.90;;;;;;4981782;28;20027;-76
2022/06/13 05:14:24;;;;;;;15.00;4.93;;;15.00;99.90;;;;;;4981564;28;20050;-74
2022/06/13 05:17:13;;;;;;;14.57;5.28;;;15.10;99.90;;;;;;4977725;28;20046;-77
2022/06/13 05:20:07;;;;;;;17.33;5.65;;;15.20;99.90;;;;;;4978610;28;20030;-73
2022/06/13 05:22:36;;;;;;;13.30;4.93;;;15.40;99.90;;;;;;4977960;28;20043;-72
2022/06/13 05:25:06;;;;;;;14.15;5.22;;;15.50;99.90;;;;;;4983208;28;20057;-73
2022/06/13 05:27:32;;;;;;;26.20;6.63;;;15.40;99.90;;;;;;4987159;28;20077;-73
2022/06/13 05:29:57;;;;;;;12.55;4.47;;;15.50;99.90;;;;;;4974743;28;20113;-75
2022/06/13 05:32:24;;;;;;;8.98;3.95;;;15.40;99.90;;;;;;4971378;28;20027;-75
2022/06/13 05:34:51;;;;;;;14.88;6.18;;;15.60;99.90;;;;;;4974320;28;20103;-75
2022/06/13 05:37:18;;;;;;;10.35;4.90;;;15.80;99.90;;;;;;4977743;28;20041;-76
2022/06/13 05:39:45;;;;;;;17.05;5.13;;;15.80;99.90;;;;;;4974112;28;20062;-75
2022/06/13 05:42:12;;;;;;;14.38;4.60;;;15.80;99.90;;;;;;4975189;28;20062;-75
2022/06/13 05:44:38;;;;;;;19.73;5.60;;;15.80;99.90;;;;;;4974566;28;20041;-75
2022/06/13 05:47:04;;;;;;;14.15;4.53;;;15.70;99.90;;;;;;4979900;28;20514;-77
2022/06/13 05:49:30;;;;;;;11.43;4.78;;;15.70;99.90;;;;;;4979451;28;20039;-71
2022/06/13 05:51:56;;;;;;;13.35;5.07;;;15.70;99.90;;;;;;4973683;28;20173;-75
2022/06/13 05:54:22;;;;;;;12.32;4.28;;;15.70;99.90;;;;;;4984479;28;20402;-77
2022/06/13 05:56:47;;;;;;;14.48;4.63;;;15.80;99.90;;;;;;4982289;28;20402;-77
2022/06/13 05:59:13;;;;;;;10.65;4.22;;;15.90;99.90;;;;;;4986536;28;20394;-79
2022/06/13 06:01:39;;;;;;;14.13;5.28;;;15.90;99.90;;;;;;4982117;28;20026;-79
2022/06/13 06:04:05;;;;;;;13.65;4.28;;;15.90;99.90;;;;;;4979402;28;20030;-79
2022/06/13 06:06:33;;;;;;;14.70;4.65;;;16.00;99.90;;;;;;4979849;28;20126;-75
2022/06/13 06:09:00;;;;;;;14.45;5.10;;;15.90;99.90;;;;;;4985278;28;20668;-76
2022/06/13 06:11:28;;;;;;;11.90;5.30;;;15.90;99.90;;;;;;4985572;28;20402;-75
2022/06/13 06:13:54;;;;;;;11.85;4.50;;;15.90;99.90;;;;;;4978901;28;20018;-74
2022/06/13 06:16:23;;;;;;;14.23;4.97;;;16.00;99.90;;;;;;4981743;28;20034;-73
2022/06/13 06:18:49;;;;;;;9.02;4.38;;;16.10;99.90;;;;;;4982292;28;20026;-72
2022/06/13 06:21:15;;;;;;;8.27;3.97;;;16.20;99.90;;;;;;4980731;28;20435;-76
2022/06/13 06:23:40;;;;;;;11.82;4.80;;;16.30;99.90;;;;;;4981363;28;20173;-76
2022/06/13 06:26:08;;;;;;;14.98;4.20;;;16.40;99.90;;;;;;4977192;28;20185;-75
2022/06/13 06:28:34;;;;;;;11.38;4.75;;;16.60;99.90;;;;;;4985521;28;21245;-76
2022/06/13 06:31:00;;;;;;;8.48;4.15;;;16.70;99.90;;;;;;4975380;28;20034;-77
2022/06/13 06:33:27;;;;;;;11.48;4.05;;;16.70;99.90;;;;;;4984420;28;20394;-76
2022/06/13 06:35:53;;;;;;;10.65;3.63;;;16.80;99.90;;;;;;4976849;28;20035;-76
2022/06/13 06:38:21;;;;;;;17.15;4.50;;;16.80;99.90;;;;;;4981206;28;20026;-74
2022/06/13 06:40:47;;;;;;;15.82;4.55;;;16.80;99.90;;;;;;4984550;28;20053;-75
2022/06/13 06:43:13;;;;;;;10.82;3.33;;;16.80;99.90;;;;;;4984057;28;20039;-74
2022/06/13 06:45:41;;;;;;;10.95;3.85;;;16.80;99.90;;;;;;4982841;28;20043;-75
2022/06/13 06:48:15;;;;;;;13.85;4.15;;;16.90;99.90;;;;;;4985864;28;20030;-75
2022/06/13 06:50:43;;;;;;;11.90;4.30;;;17.00;99.90;;;;;;4980495;28;20018;-76
2022/06/13 06:53:11;;;;;;;9.93;3.78;;;17.10;99.90;;;;;;4985479;28;20167;-75
2022/06/13 07:01:08;;;;;;;8.77;3.72;;;17.30;99.90;;;;;;4980966;28;20042;-76
2022/06/13 07:03:34;;;;;;;11.70;3.58;;;17.40;99.90;;;;;;4980359;28;20031;-76
2022/06/13 07:06:00;;;;;;;10.55;4.13;;;17.30;99.90;;;;;;4983979;28;20042;-75
2022/06/13 07:08:27;;;;;;;14.70;4.13;;;17.30;99.90;;;;;;4988257;28;20022;-74
2022/06/13 07:10:54;;;;;;;9.65;3.70;;;17.30;99.90;;;;;;4987421;28;20022;-75
2022/06/13 07:13:20;;;;;;;13.38;4.25;;;17.20;99.90;;;;;;4986311;28;20612;-75
2022/06/13 07:15:48;;;;;;;9.55;3.45;;;17.10;99.90;;;;;;4980254;28;20033;-74
2022/06/13 07:18:14;;;;;;;11.60;3.97;;;17.00;99.90;;;;;;4987024;28;20065;-74
2022/06/13 07:20:40;;;;;;;10.75;3.13;;;17.00;99.90;;;;;;4976298;28;20038;-75
2022/06/13 07:23:06;;;;;;;10.52;3.95;;;16.90;99.90;;;;;;4984448;28;20035;-75
2022/06/13 07:25:33;;;;;;;12.98;5.63;;;16.80;99.90;;;;;;4961061;28;20030;-74
2022/06/13 07:27:58;;;;;;;11.20;4.88;;;16.70;99.90;;;;;;4981265;28;20043;-75
2022/06/13 07:30:29;;;;;;;13.13;4.40;;;16.70;99.90;;;;;;4985678;28;20132;-75
2022/06/13 07:32:55;;;;;;;10.65;3.90;;;16.60;99.90;;;;;;4991316;28;20126;-76
2022/06/13 07:35:24;;;;;;;13.73;4.20;;;16.60;99.90;;;;;;4985387;28;20097;-76
2022/06/13 07:40:36;;;;;;;10.68;3.80;;;16.60;99.90;;;;;;4987642;28;20048;-76
2022/06/13 07:43:04;;;;;;;6.65;2.70;;;16.60;99.90;;;;;;4987662;28;20039;-76
2022/06/13 07:45:34;;;;;;;4.95;1.77;;;16.40;99.90;;;;;;4987669;28;20038;-75
2022/06/13 07:48:00;;;;;;;6.53;2.33;;;16.20;99.90;;;;;;4985887;28;20165;-76
2022/06/13 07:50:27;;;;;;;4.43;1.45;;;16.00;99.90;;;;;;4987825;28;20104;-76
2022/06/13 07:52:53;;;;;;;3.08;1.30;;;15.90;99.90;;;;;;4988315;28;20493;-76
2022/06/13 07:55:20;;;;;;;5.65;1.42;;;15.70;99.90;;;;;;4987735;28;20152;-76
2022/06/13 07:57:46;;;;;;;4.13;1.25;;;15.60;99.90;;;;;;4969764;28;20037;-76
2022/06/13 08:00:25;;;;;;;3.47;1.33;;;15.50;99.90;;;;;;4982459;28;20022;-75
2022/06/13 08:02:56;;;;;;;4.47;1.38;;;15.30;99.90;;;;;;4974333;28;20027;-76
2022/06/13 08:05:22;;;;;;;3.78;1.27;;;15.30;99.90;;;;;;4978767;28;20038;-76
2022/06/13 08:07:47;;;;;;;3.47;1.15;;;15.20;99.90;;;;;;4981440;28;20033;-77
2022/06/13 08:10:13;;;;;;;2.38;1.27;;;15.10;99.90;;;;;;4988992;28;20027;-76
2022/06/13 08:12:43;;;;;;;4.93;1.90;;;14.90;99.90;;;;;;4986472;28;20100;-76
2022/06/13 08:15:10;;;;;;;6.53;1.88;;;14.90;99.90;;;;;;4968399;28;20395;-76
2022/06/13 08:17:36;;;;;;;5.90;1.65;;;14.70;99.90;;;;;;4984602;28;20038;-76
2022/06/13 08:20:07;;;;;;;7.40;2.15;;;14.50;99.90;;;;;;4978519;28;20412;-75
2022/06/13 08:22:39;;;;;;;5.65;1.77;;;14.40;99.90;;;;;;4985815;28;20037;-75
2022/06/13 08:25:05;;;;;;;6.57;2.67;;;14.30;99.90;;;;;;4977487;28;20046;-75
2022/06/13 08:27:31;;;;;;;4.90;2.40;;;14.20;99.90;;;;;;4977544;28;20031;-76
2022/06/13 08:29:57;;;;;;;3.97;1.75;;;14.20;99.90;;;;;;4979337;28;20027;-76
2022/06/13 08:32:22;;;;;;;9.38;2.63;;;14.10;99.90;;;;;;4985929;28;20101;-75
2022/06/13 08:34:49;;;;;;;6.80;2.45;;;14.10;99.90;;;;;;4988634;28;20088;-75
2022/06/13 08:37:15;;;;;;;6.00;2.28;;;14.00;99.90;;;;;;4991642;28;20494;-75
2022/06/13 08:39:41;;;;;;;7.40;2.22;;;13.90;99.90;;;;;;4986099;28;20450;-75
2022/06/13 08:42:07;;;;;;;5.35;2.45;;;13.90;99.90;;;;;;4988091;28;20011;-75
2022/06/13 08:45:01;;;;;;;5.93;1.67;;;13.90;99.90;;;;;;4990556;28;20085;-75
2022/06/13 08:47:56;;;;;;;4.80;2.10;;;13.90;99.90;;;;;;4972740;28;20035;-75
2022/06/13 08:50:40;;;;;;;4.00;1.70;;;14.00;99.90;;;;;;4984733;28;20045;-75
2022/06/13 08:53:24;;;;;;;8.65;2.90;;;14.20;99.90;;;;;;4987856;28;20041;-75
2022/06/13 08:55:55;;;;;;;3.95;1.70;;;14.50;99.90;;;;;;4992715;28;20502;-75
2022/06/13 08:58:26;;;;;;;;;;;14.60;99.90;;;;;;4987656;28;20157;-75
2022/06/13 09:01:23;;;;;;;2.92;1.52;;;14.70;99.90;;;;;;4991461;28;20289;-75
2022/06/13 09:04:07;;;;;;;3.25;1.52;;;14.90;99.90;;;;;;4985839;28;20026;-75
2022/06/13 09:06:45;;;;;;;4.00;2.05;;;15.00;99.90;;;;;;4989411;28;20646;-75
2022/06/13 09:09:20;;;;;;;3.85;1.95;;;15.00;99.90;;;;;;4985940;28;20101;-76
2022/06/13 09:11:54;;;;;;;4.25;1.55;;;15.10;99.90;;;;;;4971592;28;20080;-77
2022/06/13 09:14:33;;;;;;;5.90;1.25;;;15.20;99.90;;;;;;4987455;28;20033;-77
2022/06/13 09:17:08;;;;;;;2.95;1.20;;;15.30;99.90;;;;;;4985290;28;20130;-76
2022/06/13 09:19:44;;;;;;;2.22;1.48;;;15.30;99.90;;;;;;4990117;28;20034;-76
2022/06/13 09:22:41;;;;;;;2.90;1.63;;;15.40;99.90;;;;;;4990429;28;20030;-76
2022/06/13 09:25:25;;;;;;;4.70;1.42;;;15.40;99.90;;;;;;4970995;28;20026;-76
2022/06/13 09:27:58;;;;;;;3.10;1.13;;;15.60;99.90;;;;;;4988396;28;20043;-75
2022/06/13 09:30:30;;;;;;;4.07;1.25;;;15.70;99.90;;;;;;4983838;28;20065;-75
2022/06/13 09:32:58;;;;;;;9.35;3.97;;;15.80;99.90;;;;;;4983503;28;20037;-75
2022/06/13 09:35:33;;;;;;;2.60;1.00;;;16.00;99.90;;;;;;4989675;28;20494;-75
2022/06/13 09:38:19;;;;;;;3.90;1.20;;;16.10;99.90;;;;;;4990633;28;20070;-75
2022/06/13 09:40:55;;;;;;;3.25;1.20;;;16.10;99.90;;;;;;4981201;28;20042;-72
2022/06/13 09:43:59;;;;;;;2.53;1.10;;;16.10;99.90;;;;;;4977621;28;20053;-74
2022/06/13 09:46:43;;;;;;;5.18;1.20;;;16.20;99.90;;;;;;4957828;28;20403;-73
2022/06/13 09:49:29;;;;;;;3.65;0.93;;;16.40;99.90;;;;;;4981265;28;20038;-73
2022/06/13 09:52:02;;;;;;;1.63;0.90;;;16.50;99.90;;;;;;4984976;28;20479;-74
2022/06/13 09:54:28;;;;;;;1.52;0.70;;;16.50;99.90;;;;;;4984467;28;20031;-73
2022/06/13 09:57:04;;;;;;;2.30;0.70;;;16.60;99.90;;;;;;4983910;28;20509;-73
2022/06/13 09:59:44;;;;;;;2.05;1.17;;;16.60;99.90;;;;;;4979178;28;20169;-73
2022/06/13 10:02:16;;;;;;;2.67;1.02;;;16.50;99.90;;;;;;4984256;28;20537;-73
2022/06/13 10:05:02;;;;;;;1.40;0.60;;;16.60;99.90;;;;;;4979681;28;20419;-74
2022/06/13 10:07:39;;;;;;;1.42;0.90;;;16.60;99.90;;;;;;4980759;28;20507;-76
2022/06/13 10:10:15;;;;;;;1.23;0.75;;;16.60;99.90;;;;;;4965663;28;20121;-75
2022/06/13 10:12:57;;;;;;;1.88;0.70;;;16.70;99.90;;;;;;4984343;28;20022;-75
2022/06/13 10:15:41;;;;;;;1.67;0.50;;;16.80;99.90;;;;;;4981559;28;20525;-74
2022/06/13 10:18:41;;;;;;;1.40;0.60;;;16.90;99.90;;;;;;4984377;28;20081;-74
2022/06/13 10:21:27;;;;;;;3.47;0.60;;;16.90;99.90;;;;;;4981635;28;20049;-74
2022/06/13 10:24:09;;;;;;;2.15;0.70;;;17.10;99.90;;;;;;4980826;28;20034;-75
2022/06/13 10:27:05;;;;;;;2.58;0.77;;;17.10;99.90;;;;;;4980383;28;20576;-75
2022/06/13 10:29:46;;;;;;;3.80;1.00;;;17.30;99.90;;;;;;4973983;28;20486;-74
2022/06/13 10:32:25;;;;;;;3.47;0.50;;;17.30;99.90;;;;;;4989537;28;20034;-75
2022/06/13 10:35:10;;;;;;;2.53;0.85;;;17.60;99.90;;;;;;4980757;28;20026;-75
2022/06/13 10:37:57;;;;;;;2.42;0.80;;;17.70;99.90;;;;;;4985826;28;20057;-76
2022/06/13 10:40:24;;;;;;;2.70;0.85;;;17.70;99.90;;;;;;4984900;28;20022;-75
2022/06/13 10:42:50;;;;;;;2.90;0.75;;;17.80;99.90;;;;;;4982300;28;20026;-75
2022/06/13 10:45:18;;;;;;;4.00;0.70;;;17.80;99.90;;;;;;4983711;28;20022;-78
2022/06/13 10:48:05;;;;;;;1.08;0.47;;;17.80;99.90;;;;;;4971599;28;20043;-77
2022/06/13 10:50:36;;;;;;;1.58;0.75;;;17.80;99.90;;;;;;4986913;28;20072;-78
2022/06/13 10:53:08;;;;;;;1.63;0.88;;;17.60;99.90;;;;;;4988917;28;20077;-75
2022/06/13 10:55:40;;;;;;;2.35;0.90;;;17.30;99.90;;;;;;4970182;28;20061;-78
2022/06/13 10:58:25;;;;;;;3.78;0.77;;;17.30;99.90;;;;;;4986915;28;20038;-75
2022/06/13 11:01:07;;;;;;;2.70;0.60;;;17.30;99.90;;;;;;4966023;28;20026;-76
2022/06/13 11:03:34;;;;;;;3.00;0.80;;;17.40;99.90;;;;;;5004065;28;20026;-75
2022/06/13 11:06:07;;;;;;;3.30;0.77;;;17.40;99.90;;;;;;4990766;28;20034;-79
2022/06/13 11:08:34;;;;;;;1.73;0.60;;;17.80;99.90;;;;;;4988239;28;20108;-81
2022/06/13 11:11:03;;;;;;;3.15;0.75;;;18.00;99.90;;;;;;4987940;28;20053;-76
2022/06/13 11:13:37;;;;;;;2.85;0.60;;;18.30;99.90;;;;;;4989677;28;20117;-76
2022/06/13 11:22:38;;;;;;;4.88;1.10;;;18.30;99.70;;;;;;4981982;28;20066;-75
2022/06/13 11:25:12;;;;;;;2.10;0.93;;;19.20;99.70;;;;;;4985563;28;20309;-74
2022/06/13 11:27:40;;;;;;;6.90;1.20;;;20.10;97.00;;;;;;4982087;28;20030;-76
2022/06/13 11:30:37;;;;;;;4.95;1.00;;;20.70;94.20;;;;;;4976987;28;20045;-79
2022/06/13 11:33:32;;;;;;;5.30;1.00;;;21.70;93.50;;;;;;4970000;28;20098;-77
2022/06/13 11:36:17;;;;;;;3.45;0.93;;;22.10;91.40;;;;;;4988152;28;20026;-75
2022/06/13 11:38:53;;;;;;;3.42;1.00;;;21.60;90.50;;;;;;4985086;28;20026;-75
2022/06/13 11:41:41;;;;;;;5.93;0.80;;;20.60;92.00;;;;;;4983563;28;20033;-76
2022/06/13 11:44:17;;;;;;;3.15;1.13;;;19.80;91.70;;;;;;4986246;28;20022;-75
2022/06/13 11:46:56;;;;;;;2.35;0.80;;;19.20;93.30;;;;;;4979976;28;20571;-77
2022/06/13 11:49:29;;;;;;;5.07;1.17;;;18.70;95.70;;;;;;4988921;28;20026;-77
2022/06/13 11:51:58;;;;;;;3.92;0.75;;;18.50;97.10;;;;;;4982872;28;20042;-74
2022/06/13 11:54:32;;;;;;;2.78;0.80;;;18.70;97.40;;;;;;4990190;28;20033;-74
2022/06/13 11:57:13;;;;;;;3.97;0.80;;;18.80;97.70;;;;;;4985123;28;20042;-74
2022/06/13 11:59:49;;;;;;;4.80;1.65;;;19.10;97.50;;;;;;4988794;28;20034;-76
2022/06/13 12:02:21;;;;;;;4.22;1.10;;;20.40;97.90;;;;;;4983470;28;20519;-77
2022/06/13 12:04:48;;;;;;;2.08;0.80;;;22.30;93.70;;;;;;4984751;28;20034;-77
2022/06/13 12:07:24;;;;;;;3.22;1.00;;;22.90;83.90;;;;;;4988119;28;20108;-76
2022/06/13 12:09:57;;;;;;;1.77;0.80;;;22.50;82.90;;;;;;4988705;28;20105;-74
2022/06/13 12:12:40;;;;;;;1.95;0.80;;;21.80;81.20;;;;;;4986698;28;20108;-74
2022/06/13 12:15:10;;;;;;;3.95;1.00;;;21.20;81.30;;;;;;4985062;28;20656;-75
2022/06/13 12:17:41;;;;;;;2.70;0.73;;;21.40;82.10;;;;;;4983769;28;20136;-76
2022/06/13 12:20:07;;;;;;;;;;;22.40;81.70;;;;;;4986311;28;20038;-74
2022/06/13 12:23:03;;;;;;;2.90;0.70;;;22.70;73.50;;;;;;4992118;28;19920;-76
2022/06/13 12:25:35;;;;;;;2.95;0.75;;;22.40;72.10;;;;;;4985121;28;20044;-75
2022/06/13 12:28:14;;;;;;;3.55;0.70;;;22.70;75.60;;;;;;4985294;28;20038;-75
2022/06/13 12:30:51;;;;;;;4.22;0.82;;;23.80;74.40;;;;;;4989049;28;20031;-75
2022/06/13 12:33:26;;;;;;;2.33;0.60;;;25.50;68.80;;;;;;4984394;28;20549;-75
2022/06/13 12:36:04;;;;;;;3.25;0.98;;;26.20;62.50;;;;;;4985579;28;20373;-74
2022/06/13 12:38:58;;;;;;;1.60;0.90;;;27.20;60.00;;;;;;4988548;28;20034;-75
2022/06/13 12:41:33;;;;;;;2.35;1.00;;;27.50;57.20;;;;;;4987196;28;20121;-74
2022/06/13 12:44:13;;;;;;;4.07;0.77;;;28.20;55.40;;;;;;4989179;28;20088;-75
2022/06/13 12:46:39;;;;;;;3.97;0.98;;;29.00;54.00;;;;;;4984865;28;20113;-75
2022/06/13 12:49:20;;;;;;;3.03;0.88;;;29.40;51.30;;;;;;4969945;28;20165;-75
2022/06/13 12:51:57;;;;;;;3.28;0.60;;;29.80;50.10;;;;;;4985493;28;20030;-75
2022/06/13 12:54:38;;;;;;;3.63;0.90;;;30.30;47.70;;;;;;4985072;28;20498;-74
2022/06/13 12:57:10;;;;;;;1.98;0.63;;;30.40;47.90;;;;;;4988251;28;20113;-75
2022/06/13 13:00:02;;;;;;;3.03;0.90;;;31.00;45.80;;;;;;4964572;28;20544;-75
2022/06/13 13:02:53;;;;;;;4.00;1.00;;;31.20;43.40;;;;;;4982108;28;20027;-75
2022/06/13 13:05:45;;;;;;;3.45;0.98;;;31.30;44.90;;;;;;4983930;28;20023;-75
2022/06/13 13:08:41;;;;;;;3.13;0.73;;;31.00;41.10;;;;;;4983403;28;20045;-75
2022/06/13 13:11:30;;;;;;;6.32;1.05;;;29.10;44.20;;;;;;4983762;28;20498;-75
2022/06/13 13:14:11;;;;;;;2.97;1.15;;;28.00;47.70;;;;;;4983611;28;20037;-75
2022/06/13 13:17:03;;;;;;;;;;;27.90;47.00;;;;;;4969189;28;20511;-75
2022/06/13 13:19:48;;;;;;;4.63;1.38;;;27.40;49.10;;;;;;4973199;28;20004;-75
2022/06/13 13:22:23;;;;;;;3.83;1.00;;;28.10;49.40;;;;;;4980485;28;20049;-75
2022/06/13 13:25:05;;;;;;;2.40;0.75;;;29.20;47.20;;;;;;4970156;28;20450;-75
2022/06/13 13:27:48;;;;;;;2.80;1.05;;;29.90;44.20;;;;;;4987155;28;20047;-75
2022/06/13 13:30:24;;;;;;;6.00;1.73;;;30.90;44.50;;;;;;4982072;28;20169;-75
2022/06/13 13:33:14;;;;;;;4.22;1.10;;;31.70;42.50;;;;;;4985699;28;20027;-75
2022/06/13 13:35:58;;;;;;;5.03;1.30;;;31.90;43.50;;;;;;4979477;28;20022;-74
2022/06/13 13:38:39;;;;;;;3.15;1.30;;;32.20;44.00;;;;;;4984254;28;20058;-75
2022/06/13 13:41:30;;;;;;;2.95;0.90;;;32.20;41.90;;;;;;4986485;28;20062;-76